Time;durP1;ratioP1;P1;durP2;ratioP2;P2;SDS_P1;SDS_P2;PMS_P1;PMS_P2;Temp;Humidity;BMP_temperature;BMP_pressure;BME280_temperature;BME280_humidity;BME280_pressure;Samples;Min_cycle;Max_cycle;Signal;HPM_P1;HPM_P2
2023/07/08 00:01:53;;;;;;;3.70;1.70;;;31.20;50.70;;;;;;10494176;28;20128;-36
2023/07/08 00:06:57;;;;;;;2.03;1.40;;;31.10;50.50;;;;;;10485306;28;20523;-40
2023/07/08 00:11:58;;;;;;;4.97;1.85;;;31.00;50.80;;;;;;10487672;28;20128;-40
2023/07/08 00:17:00;;;;;;;3.28;1.50;;;31.00;50.80;;;;;;10480504;28;20045;-42
2023/07/08 00:22:09;;;;;;;3.05;1.48;;;30.90;50.70;;;;;;10489953;28;20143;-43
2023/07/08 00:27:13;;;;;;;3.08;1.67;;;30.90;50.80;;;;;;10488572;28;20068;-41
2023/07/08 00:32:16;;;;;;;2.67;1.65;;;30.80;50.50;;;;;;10496436;28;20401;-40
2023/07/08 00:37:19;;;;;;;1.95;1.70;;;30.80;50.90;;;;;;10481256;28;20047;-37
2023/07/08 00:42:25;;;;;;;2.72;1.73;;;30.70;50.90;;;;;;10475443;28;20037;-38
2023/07/08 00:47:27;;;;;;;2.33;1.67;;;30.70;50.80;;;;;;10488127;28;20080;-41
2023/07/08 00:52:30;;;;;;;7.07;1.60;;;30.60;50.90;;;;;;10485076;28;20144;-41
2023/07/08 00:57:35;;;;;;;1.67;1.58;;;30.50;50.90;;;;;;10489881;28;20173;-38
2023/07/08 01:02:43;;;;;;;1.73;1.30;;;30.50;51.20;;;;;;10488465;28;20473;-41
2023/07/08 01:07:51;;;;;;;2.72;1.67;;;30.40;51.00;;;;;;10487870;28;20400;-42
2023/07/08 01:12:58;;;;;;;2.35;1.65;;;30.40;51.40;;;;;;10478920;28;20043;-39
2023/07/08 01:18:00;;;;;;;2.25;1.40;;;30.30;51.20;;;;;;10483204;28;20052;-39
2023/07/08 01:23:04;;;;;;;4.20;1.60;;;30.30;51.00;;;;;;10471558;28;20041;-36
2023/07/08 01:28:06;;;;;;;3.58;1.40;;;30.20;51.10;;;;;;10490932;28;20117;-41
2023/07/08 01:33:17;;;;;;;1.45;1.17;;;30.20;51.40;;;;;;10479479;28;20071;-37
2023/07/08 01:38:25;;;;;;;5.43;1.30;;;30.10;50.90;;;;;;10480401;28;20397;-37
2023/07/08 01:43:27;;;;;;;2.05;1.38;;;30.10;50.90;;;;;;10487310;28;20131;-37
2023/07/08 01:48:34;;;;;;;2.72;1.50;;;30.00;51.20;;;;;;10489635;28;20119;-40
2023/07/08 01:53:40;;;;;;;3.53;1.38;;;30.00;51.50;;;;;;10490833;28;20076;-42
2023/07/08 01:58:42;;;;;;;2.35;1.48;;;30.00;51.20;;;;;;10490719;28;20223;-38
2023/07/08 02:03:46;;;;;;;3.55;1.60;;;29.90;51.10;;;;;;10487317;28;20405;-40
2023/07/08 02:08:50;;;;;;;2.03;1.40;;;29.90;51.20;;;;;;10488802;28;20523;-37
2023/07/08 02:13:52;;;;;;;1.13;0.95;;;29.80;51.10;;;;;;10485448;28;20107;-40
2023/07/08 02:18:54;;;;;;;1.63;1.15;;;29.80;51.20;;;;;;10477435;28;20544;-36
2023/07/08 02:23:58;;;;;;;1.33;1.13;;;29.70;51.10;;;;;;10490741;28;20452;-39
2023/07/08 02:29:00;;;;;;;2.40;1.50;;;29.70;51.30;;;;;;10487468;28;20451;-39
2023/07/08 02:34:02;;;;;;;1.52;1.20;;;29.60;51.10;;;;;;10487402;28;20076;-42
2023/07/08 02:39:05;;;;;;;2.28;1.30;;;29.60;51.30;;;;;;10482315;28;20476;-40
2023/07/08 02:44:07;;;;;;;1.48;1.20;;;29.60;51.30;;;;;;10485484;28;20060;-38
2023/07/08 02:49:09;;;;;;;1.95;1.10;;;29.50;51.10;;;;;;10484366;28;20051;-35
2023/07/08 02:54:12;;;;;;;2.13;1.48;;;29.40;51.70;;;;;;10489098;28;20508;-37
2023/07/08 02:59:14;;;;;;;4.22;1.35;;;29.40;51.20;;;;;;10477967;28;20080;-41
2023/07/08 03:15:29;;;;;;;3.72;1.50;;;29.30;50.90;;;;;;10517135;27;2053838;-34
2023/07/08 03:20:32;;;;;;;3.30;1.27;;;29.20;51.20;;;;;;10565148;28;20146;-34
2023/07/08 03:25:36;;;;;;;1.80;1.25;;;29.20;51.30;;;;;;10565051;28;20043;-35
2023/07/08 03:30:40;;;;;;;1.65;1.40;;;29.10;51.30;;;;;;10561453;28;20051;-33
2023/07/08 03:35:41;;;;;;;2.53;1.30;;;29.10;51.30;;;;;;10559666;28;20485;-33
2023/07/08 03:40:44;;;;;;;2.00;1.55;;;29.10;51.30;;;;;;10560047;28;20496;-33
2023/07/08 03:45:47;;;;;;;2.30;1.60;;;29.10;51.30;;;;;;10555643;28;20052;-34
2023/07/08 03:50:49;;;;;;;2.67;1.40;;;29.00;51.40;;;;;;10552692;28;20499;-34
2023/07/08 03:55:51;;;;;;;1.88;1.23;;;29.00;51.40;;;;;;10536466;28;20675;-34
2023/07/08 04:00:54;;;;;;;2.25;1.42;;;29.00;51.40;;;;;;10553494;28;20746;-33
2023/07/08 04:05:56;;;;;;;1.75;1.45;;;28.90;51.30;;;;;;10547496;28;20139;-35
2023/07/08 04:10:58;;;;;;;2.35;1.30;;;28.90;51.50;;;;;;10549841;28;20112;-32
2023/07/08 04:16:05;;;;;;;2.25;1.38;;;28.80;51.40;;;;;;10555432;28;20045;-33
2023/07/08 04:21:07;;;;;;;3.05;1.73;;;28.80;51.40;;;;;;10535152;28;20064;-33
2023/07/08 04:26:09;;;;;;;2.85;1.50;;;28.70;51.50;;;;;;10526753;28;20052;-33
2023/07/08 04:31:13;;;;;;;2.47;1.55;;;28.70;51.50;;;;;;10518320;28;20080;-34
2023/07/08 04:36:15;;;;;;;2.50;1.40;;;28.70;51.50;;;;;;10530356;28;20508;-33
2023/07/08 04:41:17;;;;;;;2.45;1.50;;;28.70;51.60;;;;;;10530582;28;20048;-34
2023/07/08 04:46:27;;;;;;;2.78;1.50;;;28.70;51.60;;;;;;10525649;28;20040;-34
2023/07/08 04:51:29;;;;;;;2.35;1.40;;;28.60;51.60;;;;;;10522085;28;20095;-34
2023/07/08 04:56:37;;;;;;;2.38;1.33;;;28.60;51.60;;;;;;10532958;28;20048;-33
2023/07/08 05:01:41;;;;;;;3.25;1.30;;;28.60;51.60;;;;;;10511378;28;20160;-33
2023/07/08 05:06:43;;;;;;;1.88;1.33;;;28.60;51.60;;;;;;10524646;28;20062;-32
2023/07/08 05:11:45;;;;;;;1.88;1.27;;;28.60;51.60;;;;;;10522648;28;20140;-37
2023/07/08 05:16:48;;;;;;;2.83;1.35;;;28.60;51.60;;;;;;10519433;28;20052;-34
2023/07/08 05:21:50;;;;;;;1.42;1.17;;;28.60;51.60;;;;;;10517580;28;20139;-35
2023/07/08 05:26:52;;;;;;;2.83;1.35;;;28.60;51.60;;;;;;10522416;28;20102;-34
2023/07/08 05:31:55;;;;;;;1.17;1.08;;;28.60;51.60;;;;;;10521083;28;20515;-34
2023/07/08 05:36:57;;;;;;;5.00;1.73;;;28.60;51.60;;;;;;10527361;28;20071;-33
2023/07/08 05:41:59;;;;;;;1.70;1.30;;;28.60;51.60;;;;;;10522583;28;20044;-34
2023/07/08 05:47:03;;;;;;;2.80;1.45;;;28.60;51.50;;;;;;10516062;28;20079;-34
2023/07/08 05:52:10;;;;;;;5.60;1.55;;;28.60;51.50;;;;;;10526775;28;20514;-33
2023/07/08 05:57:12;;;;;;;1.75;1.35;;;28.60;51.50;;;;;;10528873;28;20088;-33
2023/07/08 06:02:15;;;;;;;1.80;1.40;;;28.60;51.40;;;;;;10530032;28;20067;-33
2023/07/08 06:07:17;;;;;;;2.03;1.40;;;28.60;51.30;;;;;;10523683;28;20502;-36
2023/07/08 06:12:19;;;;;;;2.45;1.63;;;28.60;51.40;;;;;;10523484;28;20068;-33
2023/07/08 06:17:22;;;;;;;2.35;1.50;;;28.50;51.30;;;;;;10531031;28;20079;-33
2023/07/08 06:22:24;;;;;;;4.85;1.60;;;28.60;51.30;;;;;;10530804;28;20056;-33
2023/07/08 06:27:26;;;;;;;3.05;1.80;;;28.60;51.30;;;;;;10528441;28;20238;-33
2023/07/08 06:32:29;;;;;;;3.53;1.70;;;28.60;51.30;;;;;;10532341;28;20138;-33
2023/07/08 06:37:31;;;;;;;3.92;1.95;;;28.60;51.30;;;;;;10522225;28;20419;-33
2023/07/08 06:42:33;;;;;;;4.18;2.08;;;28.60;51.30;;;;;;10519318;28;20147;-33
2023/07/08 06:47:37;;;;;;;2.97;1.63;;;28.70;51.20;;;;;;10509451;28;20550;-33
2023/07/08 06:52:38;;;;;;;4.63;1.55;;;28.70;51.30;;;;;;10526893;28;20142;-33
2023/07/08 06:57:40;;;;;;;5.50;1.30;;;28.60;51.20;;;;;;10521793;28;20044;-36
2023/07/08 07:02:43;;;;;;;2.90;1.73;;;28.70;51.30;;;;;;10527371;28;20131;-33
2023/07/08 07:07:45;;;;;;;2.10;1.60;;;28.70;51.20;;;;;;10514872;28;20067;-33
2023/07/08 07:12:47;;;;;;;3.75;1.70;;;28.70;51.20;;;;;;10512976;28;20469;-34
2023/07/08 07:17:51;;;;;;;2.30;1.40;;;28.30;52.10;;;;;;10508531;28;20560;-34
2023/07/08 07:22:53;;;;;;;3.13;1.58;;;28.40;52.20;;;;;;10512413;28;20037;-32
2023/07/08 07:27:55;;;;;;;2.63;1.80;;;28.40;52.20;;;;;;10516077;28;20104;-34
2023/07/08 07:33:01;;;;;;;3.17;1.17;;;28.50;52.00;;;;;;10508476;28;20139;-33
2023/07/08 07:38:02;;;;;;;2.55;1.60;;;28.50;52.00;;;;;;10522873;28;20465;-33
2023/07/08 07:43:04;;;;;;;2.80;1.98;;;28.40;52.40;;;;;;10532597;28;20466;-34
2023/07/08 07:48:08;;;;;;;1.45;1.10;;;27.90;52.20;;;;;;10523297;28;20064;-34
2023/07/08 07:53:09;;;;;;;5.10;1.70;;;28.50;52.10;;;;;;10542156;28;20083;-39
2023/07/08 07:58:12;;;;;;;5.18;1.65;;;28.80;50.80;;;;;;10524345;28;20132;-38
2023/07/08 08:03:16;;;;;;;4.80;2.45;;;28.80;51.40;;;;;;10521330;28;20044;-36
2023/07/08 08:08:20;;;;;;;3.03;1.80;;;28.80;50.90;;;;;;10536512;28;20656;-41
2023/07/08 08:13:22;;;;;;;5.80;2.25;;;28.40;51.90;;;;;;10532661;28;20056;-38
2023/07/08 08:18:25;;;;;;;5.18;2.78;;;28.30;52.40;;;;;;10519052;28;20131;-38
2023/07/08 08:23:27;;;;;;;2.88;1.88;;;28.50;51.60;;;;;;10520135;28;20071;-38
2023/07/08 08:28:29;;;;;;;5.63;3.17;;;28.30;51.90;;;;;;10519317;28;20410;-37
2023/07/08 08:33:32;;;;;;;3.05;2.05;;;28.10;51.80;;;;;;10538005;28;20456;-39
2023/07/08 08:38:34;;;;;;;2.83;1.67;;;28.60;52.10;;;;;;10523046;28;20080;-37
2023/07/08 08:43:39;;;;;;;2.78;2.03;;;29.00;51.30;;;;;;10531354;28;20072;-39
2023/07/08 08:48:52;;;;;;;3.33;2.17;;;28.80;51.60;;;;;;10527914;28;20066;-39
2023/07/08 08:53:56;;;;;;;5.20;3.13;;;28.90;51.90;;;;;;10534725;28;20076;-40
2023/07/08 08:59:07;;;;;;;5.72;2.63;;;29.10;51.80;;;;;;10527479;28;20101;-37
2023/07/08 09:04:16;;;;;;;5.35;2.38;;;29.20;51.40;;;;;;10524948;28;20032;-40
2023/07/08 09:09:22;;;;;;;4.97;3.47;;;29.20;50.90;;;;;;10533329;28;20503;-39
2023/07/08 09:14:26;;;;;;;8.60;3.30;;;28.50;51.80;;;;;;10533313;28;20055;-39
2023/07/08 09:19:33;;;;;;;3.53;2.53;;;27.70;54.70;;;;;;10535126;28;20398;-37
2023/07/08 09:24:42;;;;;;;8.30;4.97;;;27.70;55.40;;;;;;10523889;28;20440;-38
2023/07/08 09:29:44;;;;;;;10.57;4.22;;;27.30;57.00;;;;;;10531805;28;20477;-37
2023/07/08 09:34:51;;;;;;;6.60;3.50;;;27.50;57.40;;;;;;10526643;28;20653;-38
2023/07/08 09:39:54;;;;;;;3.85;2.35;;;27.60;56.30;;;;;;10521752;28;20100;-36
2023/07/08 09:44:57;;;;;;;7.18;3.80;;;27.90;57.10;;;;;;10525062;28;20044;-38
2023/07/08 09:50:01;;;;;;;12.18;4.57;;;27.60;54.90;;;;;;10517555;28;20125;-37
2023/07/08 09:55:04;;;;;;;7.70;4.15;;;27.70;56.80;;;;;;10537443;28;20417;-34
2023/07/08 10:00:11;;;;;;;6.32;3.50;;;27.90;54.30;;;;;;10530843;28;20137;-38
2023/07/08 10:05:20;;;;;;;5.38;3.45;;;29.20;53.50;;;;;;10548648;28;20097;-43
2023/07/08 10:10:28;;;;;;;6.15;3.63;;;29.30;53.60;;;;;;10523755;28;20101;-40
2023/07/08 10:15:34;;;;;;;5.45;3.25;;;29.10;54.30;;;;;;10510671;28;20060;-39
2023/07/08 10:20:48;;;;;;;4.65;2.80;;;29.30;53.80;;;;;;10521087;28;20126;-35
2023/07/08 10:25:59;;;;;;;4.32;2.38;;;29.40;52.10;;;;;;10533584;28;20573;-40
2023/07/08 10:31:07;;;;;;;;;;;29.90;52.70;;;;;;10525732;28;20430;-40
2023/07/08 10:36:22;;;;;;;4.55;2.67;;;30.20;52.20;;;;;;10522725;28;20010;-37
2023/07/08 10:41:36;;;;;;;3.05;2.75;;;30.80;51.10;;;;;;10532368;28;20104;-40
2023/07/08 10:46:45;;;;;;;14.52;3.70;;;30.30;51.50;;;;;;10513820;28;20520;-39
2023/07/08 10:51:56;;;;;;;2.67;2.10;;;30.30;50.50;;;;;;10528701;28;20075;-36
2023/07/08 10:57:07;;;;;;;4.90;2.85;;;31.10;50.80;;;;;;10524120;28;20764;-41
2023/07/08 11:02:37;;;;;;;14.27;3.90;;;30.90;50.50;;;;;;10524676;28;20485;-40
2023/07/08 11:07:47;;;;;;;6.10;3.67;;;30.90;50.20;;;;;;10528126;28;20507;-41
2023/07/08 11:12:53;;;;;;;9.63;3.83;;;31.00;50.80;;;;;;10518708;28;20063;-34
2023/07/08 11:18:01;;;;;;;3.50;2.28;;;30.90;48.70;;;;;;10537567;28;20064;-38
2023/07/08 11:23:12;;;;;;;5.05;2.90;;;31.40;50.10;;;;;;10515924;28;20458;-38
2023/07/08 11:28:23;;;;;;;9.23;3.55;;;31.80;46.80;;;;;;10517121;28;20042;-41
2023/07/08 11:33:26;;;;;;;10.13;5.22;;;31.90;46.90;;;;;;10521986;28;20129;-42
2023/07/08 11:38:29;;;;;;;14.68;8.13;;;32.20;46.90;;;;;;10528814;28;20074;-37
2023/07/08 11:43:38;;;;;;;5.20;2.97;;;32.40;46.30;;;;;;10531920;28;20051;-41
2023/07/08 11:48:44;;;;;;;6.25;3.63;;;32.60;44.00;;;;;;10526815;28;20097;-38
2023/07/08 11:53:59;;;;;;;5.90;3.00;;;32.90;46.00;;;;;;10527359;28;20088;-38
2023/07/08 11:59:12;;;;;;;4.68;2.60;;;33.00;45.70;;;;;;10534423;28;20435;-36
2023/07/08 12:04:29;;;;;;;6.15;2.88;;;33.40;46.00;;;;;;10535514;28;20109;-39
2023/07/08 12:09:39;;;;;;;7.60;5.00;;;33.20;44.90;;;;;;10530868;28;20489;-37
2023/07/08 12:14:41;;;;;;;13.30;4.30;;;34.20;45.60;;;;;;10529982;28;20181;-39
2023/07/08 12:19:44;;;;;;;6.88;4.25;;;34.10;42.70;;;;;;10539113;28;20508;-38
2023/07/08 12:24:47;;;;;;;10.65;4.38;;;34.20;44.20;;;;;;10517937;28;20094;-36
2023/07/08 12:29:50;;;;;;;10.20;4.90;;;34.40;44.10;;;;;;10514808;28;20052;-40
2023/07/08 12:34:52;;;;;;;8.15;4.57;;;34.90;42.90;;;;;;10527328;28;20052;-36
2023/07/08 12:40:03;;;;;;;14.55;4.63;;;35.20;42.30;;;;;;10532234;28;20129;-35
2023/07/08 12:45:14;;;;;;;5.45;4.22;;;35.30;41.70;;;;;;10531368;28;20047;-38
2023/07/08 12:50:17;;;;;;;9.63;4.75;;;36.20;40.10;;;;;;10527216;28;20142;-37
2023/07/08 12:55:20;;;;;;;10.23;4.50;;;36.00;39.70;;;;;;10525718;28;20071;-35
2023/07/08 13:00:26;;;;;;;12.32;4.40;;;36.60;39.60;;;;;;10537541;28;20245;-37
2023/07/08 13:05:28;;;;;;;7.88;4.95;;;36.80;40.10;;;;;;10540211;28;20533;-37
2023/07/08 13:10:36;;;;;;;10.15;4.95;;;37.20;38.80;;;;;;10523264;28;20044;-43
2023/07/08 13:15:40;;;;;;;10.23;4.60;;;37.60;39.60;;;;;;10532416;28;20087;-41
2023/07/08 13:20:43;;;;;;;8.82;4.47;;;38.20;40.90;;;;;;10532899;28;20063;-39
2023/07/08 13:25:50;;;;;;;5.18;3.92;;;38.30;39.30;;;;;;10528213;28;20063;-43
2023/07/08 13:30:54;;;;;;;10.05;4.15;;;37.40;39.80;;;;;;10519561;28;20751;-39
2023/07/08 13:35:56;;;;;;;9.98;3.90;;;37.20;39.80;;;;;;10523104;28;20143;-42
2023/07/08 13:41:03;;;;;;;9.70;4.38;;;36.80;41.80;;;;;;10522957;28;20040;-42
2023/07/08 13:46:05;;;;;;;13.10;4.00;;;37.00;41.50;;;;;;10520688;28;20127;-38
2023/07/08 13:51:10;;;;;;;7.00;4.05;;;37.00;46.40;;;;;;10530131;28;20072;-40
2023/07/08 13:56:19;;;;;;;7.40;4.00;;;37.50;43.90;;;;;;10521058;28;20139;-40
2023/07/08 14:01:24;;;;;;;5.35;3.78;;;36.60;43.90;;;;;;10526965;28;20462;-39
2023/07/08 14:06:31;;;;;;;5.38;3.45;;;36.20;49.70;;;;;;10522850;28;20451;-42
2023/07/08 14:11:34;;;;;;;12.30;4.10;;;36.30;50.60;;;;;;10518250;28;20067;-39
2023/07/08 14:16:39;;;;;;;7.13;4.55;;;35.70;48.00;;;;;;10523610;28;20082;-40
2023/07/08 14:21:40;;;;;;;9.20;4.45;;;36.00;45.40;;;;;;10521674;28;20078;-39
2023/07/08 14:26:45;;;;;;;5.70;3.92;;;36.20;45.70;;;;;;10521113;28;20048;-37
2023/07/08 14:31:47;;;;;;;7.32;4.22;;;37.30;43.30;;;;;;10520022;28;20131;-35
2023/07/08 14:36:49;;;;;;;6.18;3.85;;;36.60;43.10;;;;;;10495606;28;20439;-43
2023/07/08 14:41:52;;;;;;;5.30;3.33;;;36.30;46.80;;;;;;10520851;28;20048;-41
2023/07/08 14:46:54;;;;;;;5.40;4.20;;;36.70;48.20;;;;;;10519123;28;20052;-39
2023/07/08 14:51:56;;;;;;;9.20;4.57;;;36.40;46.50;;;;;;10518601;28;20040;-42
2023/07/08 14:57:01;;;;;;;5.20;3.20;;;35.10;47.00;;;;;;10526311;28;20087;-43
2023/07/08 15:02:16;;;;;;;3.67;2.70;;;34.60;55.40;;;;;;10528284;28;20073;-38
2023/07/08 15:07:18;;;;;;;4.50;2.78;;;35.40;54.90;;;;;;10525376;28;20127;-42
2023/07/08 15:12:21;;;;;;;7.45;5.18;;;34.50;57.80;;;;;;10537298;28;20071;-39
2023/07/08 15:17:23;;;;;;;7.05;4.40;;;34.60;47.00;;;;;;10525314;28;20133;-37
2023/07/08 15:22:25;;;;;;;8.18;3.67;;;33.40;58.00;;;;;;10519471;28;20044;-37
2023/07/08 15:27:28;;;;;;;13.27;6.43;;;34.90;55.00;;;;;;10534104;28;20131;-40
2023/07/08 15:32:30;;;;;;;5.22;3.75;;;32.90;48.90;;;;;;10524992;28;20036;-42
2023/07/08 15:37:32;;;;;;;7.82;5.22;;;34.40;54.10;;;;;;10529826;28;20048;-42
2023/07/08 15:42:35;;;;;;;3.92;2.95;;;34.20;48.70;;;;;;10519730;28;20094;-40
2023/07/08 15:47:37;;;;;;;7.10;4.90;;;34.40;57.00;;;;;;10521103;28;20119;-40
2023/07/08 15:52:39;;;;;;;6.97;5.28;;;34.70;47.70;;;;;;10520357;28;20126;-42
2023/07/08 15:57:46;;;;;;;11.88;5.25;;;33.20;49.70;;;;;;10515488;28;20148;-43
2023/07/08 16:02:51;;;;;;;11.38;5.47;;;33.70;54.00;;;;;;10517008;28;20139;-39
2023/07/08 16:07:54;;;;;;;9.00;4.63;;;32.90;53.10;;;;;;10517479;28;20051;-38
2023/07/08 16:12:57;;;;;;;6.57;4.50;;;33.60;57.30;;;;;;10509172;28;20190;-39
2023/07/08 16:18:00;;;;;;;6.38;3.63;;;33.90;59.60;;;;;;10513028;28;20468;-41
2023/07/08 16:23:01;;;;;;;6.00;4.57;;;33.80;52.60;;;;;;10515083;28;20703;-42
2023/07/08 16:28:06;;;;;;;16.00;6.00;;;33.30;62.10;;;;;;10534268;28;20185;-40
2023/07/08 16:33:09;;;;;;;6.35;4.43;;;32.10;50.80;;;;;;10529736;28;20074;-36
2023/07/08 16:38:11;;;;;;;5.43;3.47;;;33.10;53.30;;;;;;10527280;28;20120;-42
2023/07/08 16:43:22;;;;;;;7.25;5.90;;;32.90;54.10;;;;;;10528821;28;20537;-37
2023/07/08 16:48:24;;;;;;;8.73;5.72;;;33.60;58.40;;;;;;10520184;28;20408;-38
2023/07/08 16:53:25;;;;;;;17.55;7.22;;;33.70;49.70;;;;;;10518218;28;20036;-39
2023/07/08 16:58:29;;;;;;;8.93;5.22;;;33.80;47.30;;;;;;10525554;28;20142;-38
2023/07/08 17:03:32;;;;;;;9.63;5.35;;;33.80;48.30;;;;;;10515087;28;20136;-35
2023/07/08 17:08:34;;;;;;;9.70;5.10;;;34.20;46.90;;;;;;10516830;28;20046;-41
2023/07/08 17:13:37;;;;;;;10.95;5.25;;;34.90;46.60;;;;;;10522319;28;20139;-43
2023/07/08 17:18:39;;;;;;;8.45;4.97;;;35.00;46.20;;;;;;10527858;28;20068;-37
2023/07/08 17:23:41;;;;;;;9.80;5.15;;;33.70;47.50;;;;;;10528015;28;20044;-40
2023/07/08 17:28:48;;;;;;;9.88;5.38;;;34.50;49.00;;;;;;10544020;28;20071;-43
2023/07/08 17:33:53;;;;;;;11.15;5.65;;;36.40;44.50;;;;;;10524435;28;20044;-39
2023/07/08 17:38:56;;;;;;;8.50;5.13;;;37.00;43.50;;;;;;10529504;28;20102;-40
2023/07/08 17:43:59;;;;;;;6.43;4.35;;;37.10;43.60;;;;;;10525260;28;20045;-39
2023/07/08 17:49:02;;;;;;;15.00;5.03;;;37.40;42.40;;;;;;10516297;28;20051;-38
2023/07/08 17:54:04;;;;;;;11.00;5.43;;;37.30;42.30;;;;;;10508291;28;20044;-38
2023/07/08 17:59:14;;;;;;;10.05;5.40;;;37.40;43.00;;;;;;10522100;28;20143;-40
2023/07/08 18:04:16;;;;;;;8.15;4.55;;;36.50;43.70;;;;;;10518464;28;20547;-38
2023/07/08 18:09:18;;;;;;;7.65;4.93;;;35.80;44.80;;;;;;10524346;28;20365;-35
2023/07/08 18:14:21;;;;;;;10.27;5.28;;;35.60;44.10;;;;;;10516280;28;20559;-34
2023/07/08 18:19:23;;;;;;;12.63;6.05;;;34.70;44.80;;;;;;10529453;28;20080;-41
2023/07/08 18:24:25;;;;;;;7.68;4.95;;;35.70;44.40;;;;;;10525727;28;20040;-41
2023/07/08 18:29:28;;;;;;;8.80;4.53;;;35.80;45.50;;;;;;10530021;28;20143;-39
2023/07/08 18:34:29;;;;;;;11.38;5.00;;;36.40;44.90;;;;;;10523775;28;20473;-42
2023/07/08 18:39:31;;;;;;;7.47;5.10;;;36.40;43.60;;;;;;10526334;28;20158;-44
2023/07/08 18:44:37;;;;;;;9.82;5.65;;;36.30;43.60;;;;;;10529607;28;20048;-40
2023/07/08 18:49:39;;;;;;;8.55;5.30;;;36.20;45.30;;;;;;10525141;28;20480;-39
2023/07/08 18:54:41;;;;;;;14.98;5.03;;;36.30;44.90;;;;;;10524978;28;20071;-42
2023/07/08 18:59:44;;;;;;;6.43;4.50;;;36.40;45.80;;;;;;10525384;28;20146;-36
2023/07/08 19:04:46;;;;;;;7.72;4.55;;;36.50;46.90;;;;;;10530624;28;20058;-38
2023/07/08 19:09:47;;;;;;;10.73;4.93;;;35.80;47.10;;;;;;10534670;28;20075;-43
2023/07/08 19:14:51;;;;;;;14.63;5.03;;;35.40;46.70;;;;;;10514303;28;20052;-39
2023/07/08 19:19:52;;;;;;;9.80;4.18;;;34.90;47.90;;;;;;10534255;28;20079;-42
2023/07/08 19:24:55;;;;;;;3.45;2.60;;;35.30;57.50;;;;;;10522136;28;20110;-42
2023/07/08 19:29:58;;;;;;;3.95;2.88;;;36.50;57.70;;;;;;10508693;28;20048;-36
2023/07/08 19:35:00;;;;;;;3.03;2.72;;;36.60;56.40;;;;;;10520339;28;20048;-42
2023/07/08 19:40:02;;;;;;;3.67;2.80;;;36.50;55.70;;;;;;10526950;28;20152;-42
2023/07/08 19:45:15;;;;;;;4.88;3.25;;;36.40;55.40;;;;;;10519556;28;20168;-41
2023/07/08 19:50:18;;;;;;;4.28;2.90;;;36.30;54.70;;;;;;10534402;28;20709;-40
2023/07/08 19:55:19;;;;;;;5.80;3.05;;;36.20;54.30;;;;;;10535974;28;20044;-42
2023/07/08 20:00:26;;;;;;;5.78;3.25;;;36.00;54.10;;;;;;10543132;28;20131;-43
2023/07/08 20:05:29;;;;;;;4.53;3.13;;;36.00;53.90;;;;;;10536160;28;20134;-42
2023/07/08 20:10:31;;;;;;;4.60;3.35;;;35.90;53.60;;;;;;10530867;28;20131;-41
2023/07/08 20:15:34;;;;;;;3.50;2.90;;;35.70;53.60;;;;;;10522651;28;20366;-38
2023/07/08 20:20:36;;;;;;;5.07;3.25;;;35.70;53.60;;;;;;10532208;28;20120;-40
2023/07/08 20:25:38;;;;;;;4.88;3.45;;;35.50;52.90;;;;;;10536711;28;20101;-40
2023/07/08 20:30:41;;;;;;;4.32;3.15;;;35.40;53.00;;;;;;10526714;28;20064;-43
2023/07/08 20:35:43;;;;;;;3.78;2.97;;;35.30;52.70;;;;;;10531117;28;20138;-40
2023/07/08 20:40:45;;;;;;;5.53;3.42;;;35.20;52.70;;;;;;10528800;28;20075;-36
2023/07/08 20:45:50;;;;;;;4.93;3.33;;;35.10;52.40;;;;;;10529847;28;20071;-39
2023/07/08 20:50:53;;;;;;;4.43;3.33;;;35.00;52.20;;;;;;10533847;28;20139;-37
2023/07/08 20:55:55;;;;;;;4.63;3.65;;;34.90;51.50;;;;;;10530882;28;20154;-39
2023/07/08 21:00:58;;;;;;;3.70;3.33;;;34.80;52.30;;;;;;10521912;28;20058;-39
2023/07/08 21:06:00;;;;;;;4.40;4.00;;;34.70;52.50;;;;;;10519484;28;20076;-42
2023/07/08 21:11:03;;;;;;;5.57;4.32;;;34.60;51.80;;;;;;10534637;28;20083;-41
2023/07/08 21:16:13;;;;;;;5.72;3.65;;;34.60;52.10;;;;;;10538254;28;20147;-36
2023/07/08 21:21:15;;;;;;;5.03;3.65;;;34.60;52.20;;;;;;10529827;28;20041;-39
2023/07/08 21:26:20;;;;;;;4.75;3.63;;;34.50;52.30;;;;;;10534518;28;20047;-36
2023/07/08 21:31:24;;;;;;;7.07;3.85;;;34.40;52.60;;;;;;10523041;28;20044;-40
2023/07/08 21:36:27;;;;;;;6.80;4.55;;;34.30;52.70;;;;;;10536028;28;20139;-38
2023/07/08 21:41:32;;;;;;;8.00;4.30;;;34.30;53.00;;;;;;10522010;28;20051;-40
2023/07/08 21:46:35;;;;;;;6.70;3.95;;;34.20;52.90;;;;;;10514200;28;20500;-37
2023/07/08 21:51:37;;;;;;;6.82;4.13;;;34.10;52.90;;;;;;10541211;28;20063;-39
2023/07/08 21:56:39;;;;;;;6.63;3.88;;;34.10;53.10;;;;;;10534848;28;20055;-37
2023/07/08 22:01:43;;;;;;;5.45;4.10;;;34.00;53.00;;;;;;10526032;28;20075;-40
2023/07/08 22:06:44;;;;;;;7.22;4.20;;;33.90;53.20;;;;;;10531144;28;20404;-38
2023/07/08 22:11:47;;;;;;;5.53;4.10;;;33.90;53.00;;;;;;10532012;28;20389;-37
2023/07/08 22:16:51;;;;;;;5.10;4.07;;;33.80;53.10;;;;;;10521081;28;20649;-39
2023/07/08 22:21:55;;;;;;;6.75;4.07;;;33.70;53.10;;;;;;10526342;28;20113;-39
2023/07/08 22:26:56;;;;;;;5.28;3.97;;;33.70;53.10;;;;;;10528428;28;20056;-43
2023/07/08 22:31:59;;;;;;;8.55;4.78;;;33.60;53.30;;;;;;10517385;28;20136;-38
2023/07/08 22:37:01;;;;;;;5.78;4.30;;;33.60;53.30;;;;;;10540656;28;20149;-38
2023/07/08 22:42:03;;;;;;;8.27;5.00;;;33.50;53.30;;;;;;10527329;28;20119;-36
2023/07/08 22:47:12;;;;;;;7.10;5.47;;;33.50;53.30;;;;;;10524367;28;20501;-37
2023/07/08 22:52:23;;;;;;;6.78;4.72;;;33.40;53.30;;;;;;10520927;28;20083;-39
2023/07/08 22:57:25;;;;;;;8.80;4.95;;;33.30;53.40;;;;;;10525128;28;20479;-40
2023/07/08 23:02:28;;;;;;;10.52;4.93;;;33.30;53.50;;;;;;10529485;28;20056;-41
2023/07/08 23:07:30;;;;;;;6.63;5.40;;;33.20;53.30;;;;;;10529184;28;20757;-35
2023/07/08 23:12:32;;;;;;;6.00;4.35;;;33.20;53.50;;;;;;10526881;28;20134;-36
2023/07/08 23:17:38;;;;;;;7.40;5.30;;;33.10;53.80;;;;;;10528291;28;20449;-39
2023/07/08 23:22:40;;;;;;;8.48;5.28;;;33.00;53.60;;;;;;10525861;28;20139;-39
2023/07/08 23:27:43;;;;;;;7.28;5.18;;;33.00;53.80;;;;;;10529575;28;20079;-40
2023/07/08 23:32:46;;;;;;;7.25;5.15;;;33.00;54.00;;;;;;10532556;28;20078;-37
2023/07/08 23:37:49;;;;;;;7.22;4.75;;;32.90;54.10;;;;;;10538565;28;20120;-40
2023/07/08 23:42:51;;;;;;;7.97;5.38;;;32.80;54.30;;;;;;10536721;28;20490;-41
2023/07/08 23:47:54;;;;;;;6.82;4.72;;;32.80;54.20;;;;;;10535751;28;20043;-42
2023/07/08 23:52:56;;;;;;;8.63;5.22;;;32.70;54.30;;;;;;10532448;28;20043;-36
2023/07/08 23:57:58;;;;;;;8.43;5.40;;;32.70;54.40;;;;;;10523162;28;20141;-41
